Terminal Aerodrome Forecast
Issued by NWS Twin Cities, MN

Home | Current Version | Previous Version | Graphics & Text | Print | Product List | Glossary On
Versions: 1 2 3 4 5 6 7 8 9 10 11 12 13 14 15 16 17 18 19 20 21 22 23 24 25 26
060
FTUS43 KMPX 261502 AAA
TAFMSP
TAF AMD
KMSP 261502Z 2615/2718 17007KT P6SM SCT070 BKN200
     FM261700 19007KT P6SM FEW200
     FM262200 25006KT P6SM VCSH SCT050
     FM270100 27005KT P6SM SKC=

USA.gov is the U.S. government's official web portal to all federal, state and local government web resources and services.